createdAt,value
2023-05-24T00:00:01.786Z,83.24
2023-05-24T00:05:02.346Z,83.41
2023-05-24T00:10:01.755Z,83.65
2023-05-24T00:15:01.373Z,84.01
2023-05-24T00:20:02.925Z,84.08
2023-05-24T00:25:01.274Z,85.01
2023-05-24T00:30:01.809Z,84.63
2023-05-24T00:35:02.105Z,84.55
2023-05-24T00:40:01.867Z,84.6
2023-05-24T00:45:02.264Z,84.92
2023-05-24T00:50:01.957Z,85.82
2023-05-24T00:55:01.918Z,86.12
2023-05-24T01:00:01.415Z,86.68
2023-05-24T01:05:01.875Z,86.78
2023-05-24T01:10:02.493Z,87.91
2023-05-24T01:15:02.666Z,88.52
2023-05-24T01:20:02.287Z,88.33
2023-05-24T01:25:02.268Z,88.81
2023-05-24T01:30:01.721Z,90.22
2023-05-24T01:35:02.159Z,90.96
2023-05-24T01:40:01.485Z,91.97
2023-05-24T01:45:02.189Z,92.29
2023-05-24T01:50:01.535Z,92.76
2023-05-24T01:55:01.484Z,93.42
2023-05-24T02:00:01.362Z,93.92
2023-05-24T02:05:02.202Z,94.24
2023-05-24T02:10:01.567Z,94.93
2023-05-24T02:15:02.142Z,95.38
2023-05-24T02:20:01.771Z,95.7
2023-05-24T02:25:02.268Z,96.06
2023-05-24T02:30:02.300Z,96.38
2023-05-24T02:35:01.979Z,96.5
2023-05-24T02:40:01.546Z,97.33
2023-05-24T02:45:02.162Z,97.35
2023-05-24T02:50:01.537Z,97.46
2023-05-24T02:55:01.583Z,97.69
2023-05-24T03:00:02.024Z,97.81
2023-05-24T03:05:01.618Z,98.13
2023-05-24T03:10:02.267Z,98.27
2023-05-24T03:15:02.005Z,98.36
2023-05-24T03:20:01.452Z,98.58
2023-05-24T03:25:01.777Z,95.64
2023-05-24T03:30:01.934Z,98.5
2023-05-24T03:35:02.209Z,96.38
2023-05-24T03:40:01.862Z,98.84
2023-05-24T03:45:02.046Z,96.26
2023-05-24T03:50:01.392Z,98.95
2023-05-24T03:55:01.317Z,96.21
2023-05-24T04:00:01.771Z,98.95
2023-05-24T04:05:02.133Z,98.21
2023-05-24T04:10:01.826Z,96.96
2023-05-24T04:15:02.011Z,96.7
2023-05-24T04:20:02.175Z,96.68
2023-05-24T04:25:01.452Z,98.35
2023-05-24T04:30:02.000Z,98.31
2023-05-24T04:35:01.313Z,98.47
2023-05-24T04:40:01.520Z,98.48
2023-05-24T04:45:01.782Z,98.8
2023-05-24T04:50:02.180Z,98.78
2023-05-24T04:55:01.540Z,98.76
2023-05-24T05:00:01.873Z,98.93
2023-05-24T05:05:02.187Z,98.74
2023-05-24T05:10:02.013Z,98.16
2023-05-24T05:15:01.374Z,98.39
2023-05-24T05:20:01.682Z,96.69
2023-05-24T05:25:01.910Z,97.21
2023-05-24T05:30:02.124Z,96.44
2023-05-24T05:35:02.289Z,95.6
2023-05-24T05:40:02.017Z,95.95
2023-05-24T05:45:02.299Z,95.36
2023-05-24T05:50:01.380Z,95.83
2023-05-24T05:55:01.945Z,94.03
2023-05-24T06:00:02.049Z,94.58
2023-05-24T06:05:01.593Z,94.35
2023-05-24T06:10:02.151Z,92.61
2023-05-24T06:15:01.612Z,89.42
2023-05-24T06:20:02.313Z,87.88
2023-05-24T06:25:01.432Z,87.8
2023-05-24T06:30:02.005Z,87.33
2023-05-24T06:35:02.078Z,86.49
2023-05-24T06:40:02.205Z,83.38
2023-05-24T06:45:01.340Z,81.79
2023-05-24T06:50:01.718Z,83.5
2023-05-24T06:55:02.049Z,84.34
2023-05-24T07:00:01.394Z,83.08
2023-05-24T07:05:02.266Z,82.62
2023-05-24T07:10:01.937Z,85.11
2023-05-24T07:15:02.372Z,86.71
2023-05-24T07:20:01.760Z,86.09
2023-05-24T07:25:01.932Z,85.85
2023-05-24T07:30:01.427Z,84.75
2023-05-24T07:35:01.795Z,85.66
2023-05-24T07:40:01.932Z,82.73
2023-05-24T07:45:02.111Z,81.38
2023-05-24T07:50:01.404Z,81.17
2023-05-24T07:55:01.734Z,82.2
2023-05-24T08:00:01.948Z,80.9
2023-05-24T08:05:02.237Z,80.61
2023-05-24T08:10:01.568Z,81.48
2023-05-24T08:15:01.751Z,78.45
2023-05-24T08:20:02.093Z,74.46
2023-05-24T08:25:02.066Z,77.59
2023-05-24T08:30:02.239Z,76.48
2023-05-24T08:35:18.646Z,77.92
2023-05-24T08:40:01.820Z,77.87
2023-05-24T08:45:02.218Z,76.71
2023-05-24T08:50:01.521Z,75.95
2023-05-24T08:55:01.868Z,74.51
2023-05-24T09:00:02.162Z,73.68
2023-05-24T09:05:01.436Z,72.57
2023-05-24T09:10:01.956Z,74.31
2023-05-24T09:15:02.115Z,74.89
2023-05-24T09:20:02.292Z,75.92
2023-05-24T09:25:01.481Z,74.8
2023-05-24T09:30:01.892Z,71.39
2023-05-24T09:35:02.068Z,72.31
2023-05-24T09:40:02.217Z,73.6
2023-05-24T09:45:01.410Z,73.5
2023-05-24T09:50:01.932Z,76.97
2023-05-24T09:55:02.046Z,73.59
2023-05-24T10:00:01.673Z,75.52
2023-05-24T10:05:02.015Z,79.15
2023-05-24T10:10:01.482Z,74.04
2023-05-24T10:15:01.909Z,75.2
2023-05-24T10:20:02.224Z,75.07
2023-05-24T10:25:02.163Z,73.58
2023-05-24T10:30:01.304Z,71.85
2023-05-24T10:35:02.063Z,75.95
2023-05-24T10:40:01.350Z,76.24
2023-05-24T10:45:01.651Z,74.69
2023-05-24T10:50:01.984Z,74.49
2023-05-24T10:55:04.371Z,71.7
2023-05-24T11:00:02.266Z,73.25
2023-05-24T11:05:01.423Z,76.69
2023-05-24T11:10:02.251Z,73.46
2023-05-24T11:15:02.161Z,73.89
2023-05-24T11:20:01.337Z,73.37
2023-05-24T11:25:01.616Z,76.84
2023-05-24T11:30:02.187Z,76.43
2023-05-24T11:35:01.448Z,78.12
2023-05-24T11:40:01.898Z,75.17
2023-05-24T11:45:01.914Z,76.19
2023-05-24T11:50:02.209Z,77.86
2023-05-24T11:55:01.483Z,78.72
2023-05-24T12:00:02.126Z,74.64
2023-05-24T12:05:01.381Z,77.23
2023-05-24T12:10:01.648Z,76.39
2023-05-24T12:15:01.988Z,74.88
2023-05-24T12:20:01.469Z,77.45
2023-05-24T12:25:01.679Z,76.9
2023-05-24T12:30:01.958Z,76.71
2023-05-24T12:35:01.580Z,77.83
2023-05-24T12:40:02.126Z,79.97
2023-05-24T12:45:01.305Z,79.46
2023-05-24T12:50:02.177Z,80.73
2023-05-24T12:55:01.419Z,81.06
2023-05-24T13:00:01.905Z,80.89
2023-05-24T13:05:02.280Z,79.32
2023-05-24T13:10:01.974Z,78.06
2023-05-24T13:15:01.418Z,71.99
2023-05-24T13:20:02.288Z,74.45
2023-05-24T13:25:02.569Z,74.82
2023-05-24T13:30:02.246Z,74.88
2023-05-24T13:35:01.677Z,72.51
2023-05-24T13:40:02.025Z,73.16
2023-05-24T13:45:01.573Z,73.27
2023-05-24T13:50:01.939Z,71.14
2023-05-24T13:55:01.599Z,74.11
2023-05-24T14:00:02.184Z,74.43
2023-05-24T14:05:17.288Z,71.31
2023-05-24T14:10:02.128Z,71.1
2023-05-24T14:15:01.470Z,71.5
2023-05-24T14:20:02.164Z,70.88
2023-05-24T14:25:02.159Z,70.8
2023-05-24T14:30:01.490Z,70.15
2023-05-24T14:35:01.729Z,70.97
2023-05-24T14:40:02.220Z,70.35
2023-05-24T14:45:01.483Z,70.05
2023-05-24T14:50:01.847Z,71.07
2023-05-24T14:55:02.263Z,69.62
2023-05-24T15:00:01.514Z,70.69
2023-05-24T15:05:01.960Z,70.44
2023-05-24T15:10:01.505Z,70.15
2023-05-24T15:15:01.912Z,70.15
2023-05-24T15:20:01.408Z,70.37
2023-05-24T15:25:01.805Z,71.21
2023-05-24T15:30:02.078Z,70.66
2023-05-24T15:35:01.303Z,70.98
2023-05-24T15:40:01.867Z,74.43
2023-05-24T15:45:01.635Z,70.47
2023-05-24T15:50:02.270Z,72.16
2023-05-24T15:55:01.495Z,69.97
2023-05-24T16:00:01.662Z,70.56
2023-05-24T16:05:01.510Z,68.68
2023-05-24T16:10:01.602Z,72.11
2023-05-24T16:15:02.146Z,71.56
2023-05-24T16:20:02.121Z,71.92
2023-05-24T16:25:02.113Z,71.18
2023-05-24T16:30:02.281Z,72.38
2023-05-24T16:35:02.019Z,72.43
2023-05-24T16:40:02.205Z,73.49
2023-05-24T16:45:01.878Z,71.09
2023-05-24T16:50:02.014Z,71.72
2023-05-24T16:55:02.432Z,72.97
2023-05-24T17:00:02.429Z,72.75
2023-05-24T17:05:01.938Z,72.05
2023-05-24T17:10:02.364Z,72.11
2023-05-24T17:15:02.358Z,72.69
2023-05-24T17:20:02.407Z,73.3
2023-05-24T17:25:02.184Z,73.58
2023-05-24T17:30:02.193Z,74.15
2023-05-24T17:35:02.312Z,73.53
2023-05-24T17:40:01.604Z,74.01
2023-05-24T17:45:02.064Z,74.4
2023-05-24T17:50:01.912Z,75.29
2023-05-24T17:55:01.640Z,74.88
2023-05-24T18:00:01.796Z,74.98
2023-05-24T18:05:02.123Z,75.19
2023-05-24T18:10:02.116Z,75.62
2023-05-24T18:15:02.272Z,76.12
2023-05-24T18:20:02.268Z,76.39
2023-05-24T18:25:02.338Z,77.54
2023-05-24T18:30:02.016Z,76.84
2023-05-24T18:35:02.089Z,77.3
2023-05-24T18:40:02.277Z,77.17
2023-05-24T18:45:02.208Z,77.45
2023-05-24T18:50:02.038Z,77.87
2023-05-24T18:55:02.415Z,79.22
2023-05-24T19:00:01.918Z,79.19
2023-05-24T19:05:02.302Z,79.53
2023-05-24T19:10:02.066Z,80.13
2023-05-24T19:15:01.772Z,79.99
2023-05-24T19:20:02.176Z,80.2
2023-05-24T19:25:02.212Z,80.51
2023-05-24T19:30:02.179Z,80.01
2023-05-24T19:35:02.196Z,79.88
2023-05-24T19:40:01.858Z,81.18
2023-05-24T19:45:02.271Z,81.09
2023-05-24T19:50:01.770Z,81.3
2023-05-24T19:55:01.599Z,81.42
2023-05-24T20:00:01.551Z,84.48
2023-05-24T20:05:02.359Z,84.02
2023-05-24T20:10:02.197Z,83.66
2023-05-24T20:15:02.070Z,83.66
2023-05-24T20:20:02.231Z,85.11
2023-05-24T20:25:01.713Z,84.82
2023-05-24T20:30:01.971Z,85.93
2023-05-24T20:35:02.236Z,85.71
2023-05-24T20:40:01.467Z,86.17
2023-05-24T20:45:02.142Z,85.55
2023-05-24T20:50:01.372Z,86.53
2023-05-24T20:55:01.720Z,86.82
2023-05-24T21:00:01.330Z,88.02
2023-05-24T21:05:01.981Z,88.53
2023-05-24T21:10:02.157Z,89.36
2023-05-24T21:15:02.129Z,91.04
2023-05-24T21:20:02.284Z,91.98
2023-05-24T21:25:01.389Z,91.81
2023-05-24T21:30:01.518Z,92.58
2023-05-24T21:35:01.714Z,93.39
2023-05-24T21:40:02.129Z,93.74
2023-05-24T21:45:01.966Z,94.12
2023-05-24T21:50:01.524Z,94.76
2023-05-24T21:55:02.071Z,95.06
2023-05-24T22:00:01.399Z,95.18
2023-05-24T22:05:01.784Z,95.23
2023-05-24T22:10:01.814Z,95.49
2023-05-24T22:15:01.348Z,95.83
2023-05-24T22:20:01.538Z,95.91
2023-05-24T22:25:01.791Z,96.25
2023-05-24T22:30:02.028Z,96.1
2023-05-24T22:35:02.181Z,96.1
2023-05-24T22:40:01.983Z,96.42
2023-05-24T22:45:01.832Z,95.92
2023-05-24T22:50:01.750Z,96.34
2023-05-24T22:55:01.998Z,96.4
2023-05-24T23:00:02.195Z,96.54
2023-05-24T23:05:01.686Z,96.44
2023-05-24T23:10:02.140Z,96.43
2023-05-24T23:15:02.243Z,96.43
2023-05-24T23:20:02.235Z,95.82
2023-05-24T23:25:01.846Z,95.36
2023-05-24T23:30:01.680Z,95.18
2023-05-24T23:35:01.787Z,95.67
2023-05-24T23:40:02.184Z,96.34
2023-05-24T23:45:02.026Z,96.66
2023-05-24T23:50:01.651Z,96.89
2023-05-24T23:55:01.381Z,97.02
